Carl Junction, MO

7:27 AM CDT on July 31, 2015 (GMT -0500)
Joplin Regional | | Change Station
CLOSE
Current Station
Airport
Location: Joplin,
Elevation: 981 ft
Nearby Weather Stations

Elev 981 ft 37.15 °N, 94.50 °W | Updated 34 minutes ago

Mostly Cloudy
Mostly Cloudy
69 °F
Feels Like 69 °F
N
0
Wind Variable Wind from North

Today
High -- | Low -- °F
--% Chance of Precip.
Yesterday
High -- | Low -- °F
Precip. -- in
6:21 AM 8:26 PM
Full, 100% visible
Pressure 30.15 in
Visibility 10.0 miles
Clouds Mostly Cloudy 12000 ft
Dew Point 65 °F
Humidity 87%
Rainfall 0.00 in
Snow Depth Not available.
UV 0 out of 12
Pollen 6.20 out of 12
Air Quality Not available.
Flu Activity Not available.
METAR KJLN 311153Z 00000KT 10SM BKN120 21/18 A3018 RMK AO2 SLP210 T02060183 10228 20206 53011

More Conditions Fewer Conditions

Pressure 30.15 in
Visibility 10.0 miles
Clouds Mostly Cloudy 12000 ft
Dew Point 65 °F
Humidity 87%
Rainfall 0.00 in
Snow Depth Not available.
UV 0 out of 12
Pollen 6.20 out of 12
Air Quality Not available.
Flu Activity Not available.
METAR KJLN 311153Z 00000KT 10SM BKN120 21/18 A3018 RMK AO2 SLP210 T02060183 10228 20206 53011

More Conditions Fewer Conditions

10-Day Weather Forecast

×

Almanac

Astronomy

Jul. 31, 2015 Rise Set
Actual Time
Civil Twilight
Nautical Twilight
Astronomical Twilight
Moon
Length of Visible Light
Length of Day
Tomorrow will be .
, % of the Moon is Illuminated

Today's Extremes

State Highs State Lows

Community

WunderPhotos

Upload Photos

1,842,646 photos uploaded!

WunderBlogs® & News

Nearby

Air Quality

  Air Quality AQ Index Pollutant
Not available.

Snow Depth

Station Depth Elevation

Earthquake Activity

City Distance Mag. Time & Date
Minimum magnitude displayed is 2.5.

Coastal Water Temperatures

Place Temperature

Stations

Nearby Weather Stations

Station Location Temp. Windchill Dew Point Humidity Wind Precip. Elev Updated Type